Terminal Aerodrome Forecast
Issued by NWS Brownsville, TX

Home | Current Version | Previous Version | Text Only | Print | Product List | Glossary On
Versions: 1 2 3 4 5 6 7 8 9 10 11 12
000
FTUS44 KBRO 270525
TAFBRO
TAF
KBRO 270525Z 2706/2806 18003KT P6SM OVC250
     FM270900 23005KT P6SM OVC250
     FM272100 15010KT P6SM BKN250
     FM280200 18005KT P6SM BKN250=

USA.gov is the U.S. government's official web portal to all federal, state and local government web resources and services.